createdAt,value
2022-09-07T00:01:11.601Z,99185.91
2022-09-07T00:03:38.854Z,99186.44
2022-09-07T00:06:13.231Z,99172.09
2022-09-07T00:08:43.715Z,99171.25
2022-09-07T00:11:18.085Z,99174.84
2022-09-07T00:13:48.584Z,99171.25
2022-09-07T00:16:20.923Z,99185.06
2022-09-07T00:18:48.940Z,99183.97
2022-09-07T00:21:18.367Z,99186.16
2022-09-07T00:23:47.238Z,99176.25
2022-09-07T00:26:18.905Z,99181.50
2022-09-07T00:28:46.817Z,99181.75
2022-09-07T00:31:21.380Z,99176.00
2022-09-07T00:33:50.475Z,99184.00
2022-09-07T00:36:19.934Z,99178.47
2022-09-07T00:38:47.379Z,99174.31
2022-09-07T00:41:16.691Z,99177.66
2022-09-07T00:43:49.611Z,99176.00
2022-09-07T00:46:32.254Z,99177.09
2022-09-07T00:49:20.128Z,99166.63
2022-09-07T00:52:00.718Z,99166.94
2022-09-07T00:54:36.104Z,99163.59
2022-09-07T00:57:03.683Z,99169.94
2022-09-07T00:59:37.766Z,99165.25
2022-09-07T01:02:05.307Z,99165.53
2022-09-07T01:04:33.274Z,99158.94
2022-09-07T01:07:01.701Z,99165.84
2022-09-07T01:09:29.735Z,99174.66
2022-09-07T01:12:01.172Z,99161.69
2022-09-07T01:14:33.764Z,99165.84
2022-09-07T01:17:12.814Z,99167.78
2022-09-07T01:20:05.889Z,99153.41
2022-09-07T01:23:26.108Z,99161.75
2022-09-07T01:26:27.606Z,99147.38
2022-09-07T01:29:21.787Z,99151.81
2022-09-07T01:32:25.210Z,99158.97
2022-09-07T01:34:54.991Z,99160.09
2022-09-07T01:37:39.483Z,99160.09
2022-09-07T01:40:08.207Z,99155.94
2022-09-07T01:42:53.735Z,99146.28
2022-09-07T01:45:28.221Z,99145.47
2022-09-07T01:48:04.100Z,99141.88
2022-09-07T01:50:55.006Z,99142.97
2022-09-07T01:53:42.205Z,99143.28
2022-09-07T01:56:15.866Z,99135.00
2022-09-07T01:58:50.954Z,99135.00
2022-09-07T02:01:38.787Z,99131.16
2022-09-07T02:04:17.684Z,99136.94
2022-09-07T02:06:57.994Z,99134.75
2022-09-07T02:09:52.437Z,99130.59
2022-09-07T02:12:22.487Z,99128.97
2022-09-07T02:14:56.034Z,99129.75
2022-09-07T02:17:43.533Z,99113.78
2022-09-07T02:20:23.819Z,99119.03
2022-09-07T02:22:58.604Z,99126.75
2022-09-07T02:25:32.690Z,99120.97
2022-09-07T02:28:09.251Z,99122.34
2022-09-07T02:30:37.435Z,99126.22
2022-09-07T02:33:05.400Z,99116.28
2022-09-07T02:35:33.899Z,99116.28
2022-09-07T02:38:06.872Z,99119.88
2022-09-07T02:40:35.232Z,99110.50
2022-09-07T02:43:08.734Z,99112.97
2022-09-07T02:46:23.202Z,99106.66
2022-09-07T02:49:30.199Z,99110.78
2022-09-07T02:52:20.354Z,99102.81
2022-09-07T02:55:34.129Z,99108.03
2022-09-07T02:58:16.366Z,99107.50
2022-09-07T03:01:10.755Z,99112.44
2022-09-07T03:03:55.794Z,99111.09
2022-09-07T03:06:31.223Z,99107.25
2022-09-07T03:09:02.288Z,99111.38
2022-09-07T03:11:30.664Z,99098.69
2022-09-07T03:14:20.307Z,99094.00
2022-09-07T03:16:50.945Z,99094.84
2022-09-07T03:19:19.186Z,99094.81
2022-09-07T03:21:46.734Z,99086.00
2022-09-07T03:24:14.201Z,99093.75
2022-09-07T03:26:48.754Z,99100.91
2022-09-07T03:29:16.578Z,99096.50
2022-09-07T03:31:43.848Z,99105.88
2022-09-07T03:34:11.399Z,99111.38
2022-09-07T03:36:38.675Z,99101.75
2022-09-07T03:39:07.208Z,99106.69
2022-09-07T03:41:35.198Z,99100.91
2022-09-07T03:44:07.169Z,99107.25
2022-09-07T03:46:35.071Z,99102.03
2022-09-07T03:49:02.720Z,99112.78
2022-09-07T03:51:30.068Z,99115.53
2022-09-07T03:53:57.664Z,99112.22
2022-09-07T03:56:25.903Z,99114.16
2022-09-07T03:58:54.819Z,99117.19
2022-09-07T04:01:25.786Z,99110.31
2022-09-07T04:04:15.582Z,99114.69
2022-09-07T04:06:43.041Z,99113.06
2022-09-07T04:09:14.438Z,99111.97
2022-09-07T04:11:42.523Z,99108.09
2022-09-07T04:14:11.642Z,99097.09
2022-09-07T04:16:39.028Z,99099.56
2022-09-07T04:19:06.348Z,99102.88
2022-09-07T04:21:34.487Z,99103.97
2022-09-07T04:24:01.866Z,99096.53
2022-09-07T04:26:33.454Z,99105.06
2022-09-07T04:29:01.649Z,99103.97
2022-09-07T04:31:29.185Z,99106.72
2022-09-07T04:33:57.467Z,99111.72
2022-09-07T04:36:24.998Z,99115.00
2022-09-07T04:39:01.770Z,99109.50
2022-09-07T04:41:31.451Z,99113.06
2022-09-07T04:44:02.019Z,99108.94
2022-09-07T04:46:35.575Z,99111.97
2022-09-07T04:49:10.515Z,99118.59
2022-09-07T04:51:40.148Z,99116.94
2022-09-07T04:54:07.555Z,99104.25
2022-09-07T04:56:35.314Z,99116.09
2022-09-07T04:59:03.321Z,99110.06
2022-09-07T05:01:31.219Z,99111.97
2022-09-07T05:04:01.633Z,99114.16
2022-09-07T05:06:29.111Z,99106.75
2022-09-07T05:08:58.167Z,99107.28
2022-09-07T05:11:29.186Z,99116.09
2022-09-07T05:14:03.095Z,99109.22
2022-09-07T05:16:32.213Z,99123.28
2022-09-07T05:19:03.162Z,99123.00
2022-09-07T05:21:33.895Z,99129.63
2022-09-07T05:24:02.518Z,99135.41
2022-09-07T05:26:35.043Z,99137.28
2022-09-07T05:31:54.994Z,99129.84
2022-09-07T05:34:30.608Z,99132.31
2022-09-07T05:36:58.612Z,99129.56
2022-09-07T05:39:26.796Z,99116.03
2022-09-07T05:41:54.163Z,99130.91
2022-09-07T05:47:09.081Z,99133.69
2022-09-07T05:49:36.398Z,99128.47
2022-09-07T05:52:04.016Z,99120.75
2022-09-07T05:54:31.336Z,99134.50
2022-09-07T05:56:58.748Z,99133.09
2022-09-07T05:59:26.016Z,99138.59
2022-09-07T06:01:53.363Z,99119.78
2022-09-07T06:04:20.776Z,99116.69
2022-09-07T06:07:04.906Z,99119.13
2022-09-07T06:09:35.535Z,99111.34
2022-09-07T06:12:05.497Z,99107.16
2022-09-07T06:14:35.236Z,99098.53
2022-09-07T06:17:02.748Z,99112.31
2022-09-07T06:19:30.006Z,99110.91
2022-09-07T06:21:58.768Z,99100.41
2022-09-07T06:24:27.071Z,99109.25
2022-09-07T06:26:55.083Z,99111.97
2022-09-07T06:29:23.504Z,99099.47
2022-09-07T06:34:18.534Z,99096.22
2022-09-07T06:36:46.245Z,99092.25
2022-09-07T06:39:13.738Z,99091.84
2022-09-07T06:44:28.674Z,99081.94
2022-09-07T06:47:04.076Z,99093.66
2022-09-07T06:49:32.120Z,99102.94
2022-09-07T06:51:59.416Z,99098.94
2022-09-07T06:57:14.538Z,99100.25
2022-09-07T06:59:41.978Z,99104.81
2022-09-07T07:02:13.060Z,99104.94
2022-09-07T07:04:44.277Z,99104.88
2022-09-07T07:07:16.028Z,99103.53
2022-09-07T07:09:43.738Z,99103.78
2022-09-07T07:12:12.031Z,99097.84
2022-09-07T07:14:44.030Z,99091.94
2022-09-07T07:17:13.393Z,99096.16
2022-09-07T07:19:41.042Z,99087.75
2022-09-07T07:22:45.660Z,99091.09
2022-09-07T07:24:58.701Z,99099.25
2022-09-07T07:27:26.208Z,99088.38
2022-09-07T07:29:54.032Z,99085.28
2022-09-07T07:32:21.874Z,99082.06
2022-09-07T07:34:49.656Z,99085.84
2022-09-07T07:37:17.390Z,99089.38
2022-09-07T07:42:34.031Z,99097.25
2022-09-07T07:48:02.580Z,99095.41
2022-09-07T07:50:31.926Z,99089.06
2022-09-07T07:55:52.085Z,99099.56
2022-09-07T08:01:23.934Z,99101.88
2022-09-07T08:16:57.901Z,99114.94
2022-09-07T08:19:34.458Z,99112.25
2022-09-07T08:34:40.764Z,99103.47
2022-09-07T08:37:25.065Z,99100.25
2022-09-07T08:43:23.045Z,99093.94
2022-09-07T08:47:01.698Z,99095.22
2022-09-07T08:49:57.941Z,99087.75
2022-09-07T08:52:59.584Z,99091.88
2022-09-07T08:58:58.952Z,99089.47
2022-09-07T09:19:37.716Z,99079.03
2022-09-07T09:22:24.936Z,99076.75
2022-09-07T09:31:48.927Z,99073.72
2022-09-07T09:34:31.230Z,99079.34
2022-09-07T09:37:05.600Z,99069.03
2022-09-07T09:39:40.114Z,99070.88
2022-09-07T09:42:33.403Z,99062.84
2022-09-07T09:45:21.016Z,99055.69
2022-09-07T09:47:56.278Z,99058.34
2022-09-07T09:53:55.919Z,99062.81
2022-09-07T09:56:45.568Z,99058.41
2022-09-07T10:09:24.329Z,99048.19
2022-09-07T10:14:45.655Z,99042.31
2022-09-07T10:17:46.269Z,99041.00
2022-09-07T10:20:31.878Z,99046.59
2022-09-07T10:23:02.845Z,99035.94
2022-09-07T10:25:41.746Z,99039.75
2022-09-07T10:28:17.002Z,99044.00
2022-09-07T10:31:15.042Z,99034.34
2022-09-07T10:34:35.247Z,99030.56
2022-09-07T10:37:12.206Z,99032.34
2022-09-07T10:39:50.887Z,99040.06
2022-09-07T10:43:20.593Z,99031.41
2022-09-07T10:45:52.419Z,99028.25
2022-09-07T10:48:47.682Z,99023.19
2022-09-07T10:51:32.024Z,99024.19
2022-09-07T10:54:33.418Z,99022.84
2022-09-07T10:57:33.080Z,99017.78
2022-09-07T11:00:13.139Z,99014.00
2022-09-07T11:03:25.535Z,99011.38
2022-09-07T11:06:32.338Z,99010.38
2022-09-07T11:09:42.168Z,99011.22
2022-09-07T11:12:27.372Z,99008.25
2022-09-07T11:15:17.796Z,99000.38
2022-09-07T11:18:15.106Z,99001.69
2022-09-07T11:20:57.927Z,99008.06
2022-09-07T11:23:47.363Z,98993.66
2022-09-07T11:26:49.833Z,98992.81
2022-09-07T11:29:49.463Z,98992.66
2022-09-07T11:32:30.360Z,98989.88
2022-09-07T11:35:06.937Z,98994.47
2022-09-07T11:37:48.762Z,98985.75
2022-09-07T11:40:36.048Z,98989.19
2022-09-07T11:43:52.668Z,98976.38
2022-09-07T11:46:57.931Z,98981.50
2022-09-07T11:49:26.561Z,98976.06
2022-09-07T11:51:55.992Z,98976.06
2022-09-07T11:54:51.314Z,98966.88
2022-09-07T11:57:25.926Z,98964.75
2022-09-07T12:00:21.401Z,98959.66
2022-09-07T12:03:23.569Z,98951.81
2022-09-07T12:06:24.386Z,98967.88
2022-09-07T12:09:35.522Z,98960.31
2022-09-07T12:12:23.743Z,98961.16
2022-09-07T12:15:03.575Z,98954.44
2022-09-07T12:17:51.889Z,98959.19
2022-09-07T12:20:22.616Z,98954.75
2022-09-07T12:23:04.227Z,98949.97
2022-09-07T12:25:34.207Z,98946.53
2022-09-07T12:28:03.336Z,98941.09
2022-09-07T12:30:41.802Z,98946.50
2022-09-07T12:33:32.028Z,98940.78
2022-09-07T12:36:01.316Z,98939.63
2022-09-07T12:38:32.428Z,98948.47
2022-09-07T12:41:03.028Z,98936.16
2022-09-07T12:43:48.769Z,98941.06
2022-09-07T12:46:40.627Z,98936.59
2022-09-07T12:49:13.860Z,98926.78
2022-09-07T12:55:27.124Z,98930.84
2022-09-07T13:02:05.308Z,98925.13
2022-09-07T13:05:32.105Z,98926.78
2022-09-07T13:08:31.410Z,98933.16
2022-09-07T13:11:20.350Z,98923.47
2022-09-07T13:14:14.042Z,98934.31
2022-09-07T13:19:48.062Z,98919.72
2022-09-07T13:22:33.696Z,98916.47
2022-09-07T13:25:22.516Z,98913.84
2022-09-07T13:28:16.791Z,98918.75
2022-09-07T13:31:14.609Z,98912.19
2022-09-07T13:33:51.723Z,98909.56
2022-09-07T13:36:49.148Z,98902.84
2022-09-07T13:39:20.972Z,98896.44
2022-09-07T13:41:56.498Z,98904.31
2022-09-07T13:44:31.829Z,98912.31
2022-09-07T13:47:25.306Z,98902.13
2022-09-07T13:50:31.631Z,98910.69
2022-09-07T13:53:15.771Z,98901.66
2022-09-07T13:56:21.452Z,98899.69
2022-09-07T13:58:53.296Z,98897.34
2022-09-07T14:01:27.254Z,98895.38
2022-09-07T14:04:06.619Z,98892.28
2022-09-07T14:06:39.063Z,98895.53
2022-09-07T14:09:16.061Z,98883.91
2022-09-07T14:11:53.916Z,98882.41
2022-09-07T14:14:24.329Z,98884.88
2022-09-07T14:17:01.140Z,98882.69
2022-09-07T14:19:51.324Z,98882.69
2022-09-07T14:22:41.323Z,98875.63
2022-09-07T14:25:18.339Z,98870.22
2022-09-07T14:27:48.714Z,98863.97
2022-09-07T14:30:36.375Z,98870.38
2022-09-07T14:33:14.586Z,98874.81
2022-09-07T14:35:45.022Z,98870.03
2022-09-07T14:41:28.757Z,98864.63
2022-09-07T14:44:00.360Z,98858.22
2022-09-07T14:46:37.076Z,98872.69
2022-09-07T14:49:21.937Z,98872.81
2022-09-07T14:51:51.056Z,98873.28
2022-09-07T14:54:29.154Z,98866.56
2022-09-07T14:57:07.057Z,98863.63
2022-09-07T14:59:38.266Z,98871.69
2022-09-07T15:02:39.190Z,98875.63
2022-09-07T15:05:30.181Z,98868.06
2022-09-07T15:08:04.833Z,98872.34
2022-09-07T15:10:41.247Z,98875.94
2022-09-07T15:13:26.138Z,98883.16
2022-09-07T15:16:01.666Z,98882.34
2022-09-07T15:18:56.751Z,98893.19
2022-09-07T15:21:33.632Z,98885.97
2022-09-07T15:24:03.138Z,98884.81
2022-09-07T15:27:02.475Z,98872.00
2022-09-07T15:29:31.981Z,98876.44
2022-09-07T15:32:05.171Z,98872.81
2022-09-07T15:34:36.212Z,98875.13
2022-09-07T15:38:00.580Z,98868.56
2022-09-07T15:39:52.865Z,98870.53
2022-09-07T15:45:08.985Z,98859.25
2022-09-07T15:47:48.193Z,98869.59
2022-09-07T15:50:23.105Z,98868.75
2022-09-07T15:52:51.392Z,98867.47
2022-09-07T15:55:19.340Z,98870.94
2022-09-07T15:57:50.050Z,98862.06
2022-09-07T16:00:22.726Z,98867.66
2022-09-07T16:03:08.497Z,98865.22
2022-09-07T16:05:39.775Z,98861.44
2022-09-07T16:11:05.264Z,98864.06
2022-09-07T16:13:34.366Z,98867.53
2022-09-07T16:18:48.093Z,98855.41
2022-09-07T16:21:17.995Z,98850.34
2022-09-07T16:23:49.463Z,98858.56
2022-09-07T16:26:20.062Z,98859.22
2022-09-07T16:28:51.211Z,98863.38
2022-09-07T16:31:23.760Z,98849.91
2022-09-07T16:33:52.141Z,98852.22
2022-09-07T16:36:23.717Z,98849.78
2022-09-07T16:39:00.556Z,98849.78
2022-09-07T16:41:33.685Z,98848.81
2022-09-07T16:44:02.355Z,98850.97
2022-09-07T16:46:31.450Z,98852.75
2022-09-07T16:48:59.511Z,98850.16
2022-09-07T16:51:28.752Z,98853.28
2022-09-07T16:53:59.027Z,98861.50
2022-09-07T16:59:26.891Z,98859.00
2022-09-07T17:01:54.661Z,98854.94
2022-09-07T17:04:22.396Z,98853.13
2022-09-07T17:06:52.022Z,98861.00
2022-09-07T17:09:20.632Z,98851.84
2022-09-07T17:11:47.896Z,98858.72
2022-09-07T17:14:15.829Z,98849.69
2022-09-07T17:16:43.278Z,98850.34
2022-09-07T17:19:29.196Z,98848.25
2022-09-07T17:21:58.427Z,98849.22
2022-09-07T17:24:25.978Z,98846.44
2022-09-07T17:26:53.219Z,98841.84
2022-09-07T17:29:20.653Z,98830.88
2022-09-07T17:34:35.740Z,98841.84
2022-09-07T17:37:02.973Z,98841.69
2022-09-07T17:39:30.650Z,98831.84
2022-09-07T17:41:58.343Z,98839.22
2022-09-07T17:44:26.060Z,98836.59
2022-09-07T17:46:53.416Z,98839.19
2022-09-07T17:49:20.929Z,98835.41
2022-09-07T17:51:48.873Z,98834.44
2022-09-07T17:54:17.844Z,98827.56
2022-09-07T17:56:46.198Z,98834.91
2022-09-07T18:02:01.340Z,98838.81
2022-09-07T18:04:28.989Z,98837.53
2022-09-07T18:06:56.634Z,98840.13
2022-09-07T18:09:24.511Z,98839.78
2022-09-07T18:11:52.094Z,98845.34
2022-09-07T18:14:20.214Z,98847.75
2022-09-07T18:16:49.931Z,98848.72
2022-09-07T18:19:18.384Z,98859.53
2022-09-07T18:21:46.212Z,98853.44
2022-09-07T18:24:19.017Z,98863.69
2022-09-07T18:26:50.636Z,98865.97
2022-09-07T18:29:29.880Z,98876.59
2022-09-07T18:31:58.878Z,98864.31
2022-09-07T18:34:26.672Z,98866.47
2022-09-07T18:36:55.241Z,98862.53
2022-09-07T18:39:23.395Z,98868.28
2022-09-07T18:41:51.037Z,98866.66
2022-09-07T18:47:08.685Z,98875.13
2022-09-07T18:49:36.166Z,98867.75
2022-09-07T18:54:51.708Z,98868.69
2022-09-07T18:57:19.162Z,98866.88
2022-09-07T18:59:46.619Z,98873.06
2022-09-07T19:02:14.472Z,98877.50
2022-09-07T19:07:30.214Z,98882.00
2022-09-07T19:09:58.382Z,98879.19
2022-09-07T19:12:26.536Z,98886.06
2022-09-07T19:14:54.182Z,98889.97
2022-09-07T19:17:21.545Z,98874.56
2022-09-07T19:19:49.278Z,98888.16
2022-09-07T19:22:16.916Z,98877.84
2022-09-07T19:24:44.263Z,98878.34
2022-09-07T19:27:11.907Z,98870.66
2022-09-07T19:29:39.153Z,98863.16
2022-09-07T19:32:12.117Z,98861.44
2022-09-07T19:34:45.567Z,98862.56
2022-09-07T19:37:14.080Z,98856.84
2022-09-07T19:39:41.361Z,98848.19
2022-09-07T19:42:08.880Z,98845.09
2022-09-07T19:44:36.269Z,98848.50
2022-09-07T19:47:03.628Z,98852.75
2022-09-07T19:49:31.120Z,98857.47
2022-09-07T19:51:58.363Z,98858.56
2022-09-07T19:54:25.747Z,98852.16
2022-09-07T19:56:53.023Z,98864.09
2022-09-07T19:59:20.327Z,98864.94
2022-09-07T20:01:49.557Z,98864.09
2022-09-07T20:04:20.619Z,98868.34
2022-09-07T20:06:50.497Z,98870.69
2022-09-07T20:09:20.683Z,98870.13
2022-09-07T20:11:48.681Z,98877.13
2022-09-07T20:14:17.224Z,98876.31
2022-09-07T20:16:44.832Z,98872.72
2022-09-07T20:19:17.530Z,98862.56
2022-09-07T20:21:44.971Z,98867.47
2022-09-07T20:24:14.541Z,98877.75
2022-09-07T20:26:41.962Z,98869.44
2022-09-07T20:32:12.232Z,98878.09
2022-09-07T20:35:13.095Z,98867.59
2022-09-07T20:37:41.514Z,98877.56
2022-09-07T20:40:19.340Z,98862.47
2022-09-07T20:42:47.705Z,98866.09
2022-09-07T20:45:15.181Z,98864.88
2022-09-07T20:47:43.544Z,98867.31
2022-09-07T20:59:01.854Z,98868.69
2022-09-07T21:01:36.031Z,98873.13
2022-09-07T21:04:05.169Z,98860.78
2022-09-07T21:06:34.928Z,98866.56
2022-09-07T21:11:57.343Z,98862.13
2022-09-07T21:14:26.031Z,98860.00
2022-09-07T21:16:59.464Z,98861.59
2022-09-07T21:19:27.929Z,98863.06
2022-09-07T21:21:59.125Z,98864.81
2022-09-07T21:24:51.491Z,98866.19
2022-09-07T21:27:20.765Z,98867.50
2022-09-07T21:29:56.930Z,98867.00
2022-09-07T21:35:28.580Z,98870.59
2022-09-07T21:37:56.589Z,98873.34
2022-09-07T21:47:14.762Z,98864.66
2022-09-07T22:04:53.919Z,98853.63
2022-09-07T22:07:21.468Z,98855.28
2022-09-07T22:09:50.061Z,98855.38
2022-09-07T22:12:17.963Z,98865.06
2022-09-07T22:14:46.019Z,98862.91
2022-09-07T22:17:14.341Z,98849.72
2022-09-07T22:19:42.336Z,98869.97
2022-09-07T22:22:09.838Z,98874.81
2022-09-07T22:24:37.665Z,98868.94
2022-09-07T22:27:05.529Z,98861.25
2022-09-07T22:29:33.127Z,98864.31
2022-09-07T22:32:00.869Z,98861.88
2022-09-07T22:34:29.246Z,98854.19
2022-09-07T22:36:57.266Z,98848.63
2022-09-07T22:39:27.932Z,98846.16
2022-09-07T22:41:55.576Z,98845.63
2022-09-07T22:44:24.748Z,98841.84
2022-09-07T22:46:52.240Z,98836.72
2022-09-07T22:49:20.396Z,98831.06
2022-09-07T22:51:48.189Z,98831.25
2022-09-07T22:54:16.098Z,98835.69
2022-09-07T22:56:43.658Z,98821.00
2022-09-07T22:59:13.127Z,98827.38
2022-09-07T23:01:41.316Z,98814.72
2022-09-07T23:04:09.725Z,98818.53
2022-09-07T23:06:40.534Z,98820.91
2022-09-07T23:09:16.333Z,98827.78
2022-09-07T23:11:45.251Z,98822.22
2022-09-07T23:14:19.625Z,98828.25
2022-09-07T23:16:48.094Z,98827.34
2022-09-07T23:19:18.364Z,98822.34
2022-09-07T23:21:46.134Z,98821.44
2022-09-07T23:24:19.339Z,98814.53
2022-09-07T23:26:48.083Z,98802.41
2022-09-07T23:29:17.002Z,98800.78
2022-09-07T23:31:47.170Z,98799.44
2022-09-07T23:34:15.031Z,98808.28
2022-09-07T23:36:42.758Z,98811.75
2022-09-07T23:39:10.280Z,98812.69
2022-09-07T23:41:38.335Z,98808.84
2022-09-07T23:44:05.908Z,98811.31
2022-09-07T23:46:34.187Z,98809.38
2022-09-07T23:49:01.931Z,98798.00
2022-09-07T23:51:29.395Z,98799.72
2022-09-07T23:53:57.025Z,98805.16
2022-09-07T23:56:24.698Z,98800.78
2022-09-07T23:58:52.390Z,98801.06
